Time;durP1;ratioP1;P1;durP2;ratioP2;P2;SDS_P1;SDS_P2;PMS_P1;PMS_P2;Temp;Humidity;BMP_temperature;BMP_pressure;BME280_temperature;BME280_humidity;BME280_pressure;Samples;Min_cycle;Max_cycle;Signal;HPM_P1;HPM_P2
2021/01/07 08:32:05;;;;;;;10.33;5.23;;;4.20;99.90;;;;;;4937756;29;20227;-77
2021/01/07 08:34:33;;;;;;;10.93;4.83;;;4.40;99.90;;;;;;4937673;29;20559;-78
2021/01/07 08:37:10;;;;;;;9.17;4.63;;;4.50;99.90;;;;;;4937700;29;20232;-78
2021/01/07 08:39:37;;;;;;;6.60;3.50;;;4.50;99.90;;;;;;4942435;28;20216;-77
2021/01/07 08:42:05;;;;;;;6.50;3.33;;;4.60;99.90;;;;;;4941622;28;20212;-78
2021/01/07 08:44:31;;;;;;;6.37;3.13;;;4.60;99.90;;;;;;4940356;28;20576;-77
2021/01/07 08:46:57;;;;;;;7.03;3.67;;;4.60;99.90;;;;;;4942239;28;20232;-77
2021/01/07 08:49:24;;;;;;;5.23;3.10;;;4.60;99.90;;;;;;4935546;29;20699;-78
2021/01/07 08:51:53;;;;;;;5.77;2.97;;;4.60;99.90;;;;;;4943510;28;20212;-77
2021/01/07 08:54:21;;;;;;;5.00;2.60;;;4.70;99.90;;;;;;4948756;28;20239;-77
2021/01/07 08:56:48;;;;;;;4.70;2.70;;;4.70;99.90;;;;;;4941868;28;20284;-78
2021/01/07 08:59:22;;;;;;;5.73;3.23;;;4.90;99.90;;;;;;4943376;28;20706;-78
2021/01/07 09:01:49;;;;;;;5.67;2.93;;;5.00;99.90;;;;;;4945586;28;20711;-78
2021/01/07 09:04:31;;;;;;;5.30;3.23;;;5.10;99.90;;;;;;4939618;28;20629;-78
2021/01/07 09:07:03;;;;;;;6.60;2.77;;;5.20;99.90;;;;;;4940297;28;20286;-78
2021/01/07 09:09:39;;;;;;;4.73;3.03;;;5.10;99.90;;;;;;4943650;28;20212;-78
2021/01/07 09:12:13;;;;;;;7.87;2.70;;;4.90;99.90;;;;;;4940706;28;20212;-78
2021/01/07 09:14:47;;;;;;;5.70;3.03;;;4.90;99.90;;;;;;4949507;28;20199;-78
2021/01/07 09:17:14;;;;;;;3.63;2.13;;;5.00;99.90;;;;;;4946864;28;20623;-78
2021/01/07 09:19:41;;;;;;;5.17;2.40;;;5.10;99.90;;;;;;4947256;28;20559;-77
2021/01/07 09:22:08;;;;;;;4.53;2.43;;;5.10;99.90;;;;;;4946602;28;20201;-78
2021/01/07 09:24:35;;;;;;;3.90;2.57;;;5.10;99.90;;;;;;4939353;29;20216;-78
2021/01/07 09:27:10;;;;;;;4.03;2.47;;;5.00;99.90;;;;;;4938756;29;20225;-78
2021/01/07 09:29:37;;;;;;;5.83;2.33;;;5.10;99.90;;;;;;4938794;29;20726;-77
2021/01/07 09:32:04;;;;;;;4.10;2.00;;;5.30;99.90;;;;;;4939119;29;20213;-78
2021/01/07 09:34:31;;;;;;;3.53;2.00;;;5.30;99.90;;;;;;4938935;29;20208;-77
2021/01/07 09:37:06;;;;;;;3.70;1.90;;;5.30;99.90;;;;;;4939120;29;20228;-77
2021/01/07 09:39:33;;;;;;;3.87;2.23;;;5.30;99.90;;;;;;4939187;29;20239;-77
2021/01/07 09:41:59;;;;;;;3.60;1.80;;;5.30;99.90;;;;;;4939041;29;20692;-77
2021/01/07 09:44:25;;;;;;;4.43;2.00;;;5.20;99.90;;;;;;4938857;29;20696;-77
2021/01/07 09:46:53;;;;;;;3.87;2.10;;;5.10;99.90;;;;;;4938828;29;20236;-77
2021/01/07 09:49:20;;;;;;;2.63;1.80;;;5.20;99.90;;;;;;4939177;29;20295;-77
2021/01/07 09:51:46;;;;;;;2.53;1.73;;;5.20;99.90;;;;;;4938968;29;20212;-77
2021/01/07 09:54:13;;;;;;;3.57;1.70;;;5.20;99.90;;;;;;4938947;29;20213;-77
2021/01/07 09:56:40;;;;;;;3.67;2.00;;;5.10;99.90;;;;;;4938735;29;20225;-78
2021/01/07 09:59:06;;;;;;;3.67;1.90;;;5.20;99.90;;;;;;4938944;29;20292;-77
2021/01/07 10:01:32;;;;;;;3.90;1.90;;;5.20;99.90;;;;;;4938712;29;20209;-77
2021/01/07 10:03:59;;;;;;;7.23;2.00;;;5.30;99.90;;;;;;4938658;29;20726;-77
2021/01/07 10:06:25;;;;;;;2.67;1.57;;;5.30;99.90;;;;;;4938605;29;20236;-77
2021/01/07 10:08:51;;;;;;;3.77;2.10;;;5.30;99.90;;;;;;4938616;29;20208;-77
2021/01/07 10:11:19;;;;;;;4.33;2.40;;;5.20;99.90;;;;;;4938495;29;20212;-77
2021/01/07 10:13:45;;;;;;;2.70;2.00;;;5.40;99.90;;;;;;4938722;29;20268;-78
2021/01/07 10:16:12;;;;;;;3.93;2.07;;;5.40;99.90;;;;;;4938617;29;20599;-77
2021/01/07 10:18:39;;;;;;;5.53;2.37;;;5.40;99.90;;;;;;4938223;29;20635;-77
2021/01/07 10:21:08;;;;;;;3.57;1.90;;;5.50;99.90;;;;;;4938273;29;20572;-77
2021/01/07 10:23:35;;;;;;;3.33;2.00;;;5.60;99.90;;;;;;4938210;29;20667;-77
2021/01/07 10:26:01;;;;;;;3.37;2.00;;;5.60;99.90;;;;;;4937573;29;20284;-77
2021/01/07 10:28:29;;;;;;;4.13;2.27;;;5.60;99.90;;;;;;4938296;29;20228;-78
2021/01/07 10:30:55;;;;;;;3.70;2.00;;;5.80;99.90;;;;;;4938466;29;20228;-78
2021/01/07 10:33:22;;;;;;;4.80;2.50;;;6.00;99.90;;;;;;4938349;29;20263;-77
2021/01/07 10:35:49;;;;;;;4.63;2.27;;;6.20;99.90;;;;;;4938266;29;20276;-76
2021/01/07 10:38:22;;;;;;;3.20;1.80;;;6.20;99.90;;;;;;4938078;29;20599;-77
2021/01/07 10:40:49;;;;;;;3.57;1.80;;;6.40;99.90;;;;;;4938005;29;20669;-78
2021/01/07 10:43:19;;;;;;;4.77;1.80;;;6.40;99.90;;;;;;4938271;29;20245;-77
2021/01/07 10:45:49;;;;;;;4.27;2.10;;;6.50;99.90;;;;;;4937945;29;20205;-78
2021/01/07 10:48:20;;;;;;;4.07;1.53;;;6.50;99.90;;;;;;4938221;29;20236;-78
2021/01/07 10:50:47;;;;;;;5.30;1.67;;;6.70;99.90;;;;;;4937971;29;20213;-77
2021/01/07 10:53:36;;;;;;;2.93;1.60;;;6.80;99.90;;;;;;4937827;29;20216;-77
2021/01/07 10:56:04;;;;;;;2.53;1.50;;;7.00;99.90;;;;;;4937714;29;20687;-76
2021/01/07 10:58:36;;;;;;;3.77;2.00;;;7.00;99.90;;;;;;4937600;29;20237;-77
2021/01/07 11:01:15;;;;;;;3.80;1.80;;;7.10;99.90;;;;;;4938026;29;20231;-78
2021/01/07 11:04:06;;;;;;;2.23;1.50;;;7.00;99.90;;;;;;4938103;29;20227;-78
2021/01/07 11:06:36;;;;;;;3.10;1.57;;;7.00;99.90;;;;;;4937839;29;20228;-78
2021/01/07 11:09:07;;;;;;;3.90;1.37;;;6.90;99.90;;;;;;4937665;29;20216;-77
2021/01/07 11:11:39;;;;;;;2.67;1.23;;;6.80;99.90;;;;;;4937610;29;20212;-77
2021/01/07 11:14:08;;;;;;;1.77;1.20;;;7.00;99.90;;;;;;4937116;29;20213;-77
2021/01/07 11:16:41;;;;;;;6.47;1.47;;;7.00;99.90;;;;;;4937236;29;20229;-77
2021/01/07 11:19:09;;;;;;;2.00;1.30;;;7.10;99.90;;;;;;4936940;29;20700;-77
2021/01/07 11:21:41;;;;;;;3.43;1.60;;;6.90;99.90;;;;;;4942315;29;20251;-77
2021/01/07 11:24:08;;;;;;;3.67;1.20;;;6.80;99.90;;;;;;4955535;28;20219;-77
2021/01/07 11:26:36;;;;;;;1.67;1.07;;;6.60;99.90;;;;;;4958514;28;20236;-78
2021/01/07 11:29:02;;;;;;;1.33;0.87;;;6.50;99.90;;;;;;4953969;28;20730;-78
2021/01/07 11:31:28;;;;;;;3.00;1.23;;;6.70;99.90;;;;;;4961668;28;20323;-75
2021/01/07 11:33:58;;;;;;;1.30;0.97;;;6.70;99.90;;;;;;4962110;28;20211;-82
2021/01/07 11:36:31;;;;;;;4.60;1.00;;;6.60;99.90;;;;;;4939938;28;20321;-82
2021/01/07 11:39:00;;;;;;;1.43;1.20;;;6.60;99.90;;;;;;4935548;29;20252;-81
2021/01/07 11:41:43;;;;;;;2.60;1.03;;;6.70;99.90;;;;;;4935736;29;20217;-79
2021/01/07 11:44:24;;;;;;;1.83;1.00;;;6.80;99.90;;;;;;4935733;28;20208;-79
2021/01/07 11:46:53;;;;;;;6.03;1.20;;;6.70;99.90;;;;;;4953795;28;20236;-80
2021/01/07 11:49:20;;;;;;;3.10;1.10;;;6.70;99.90;;;;;;4954040;28;20675;-75
2021/01/07 11:51:51;;;;;;;3.47;1.23;;;6.80;99.90;;;;;;4953986;28;20215;-80
2021/01/07 11:54:18;;;;;;;3.17;1.10;;;6.80;99.90;;;;;;4953217;28;20212;-79
2021/01/07 11:56:46;;;;;;;2.43;1.20;;;6.60;99.90;;;;;;4953534;28;20699;-82
2021/01/07 11:59:15;;;;;;;4.10;1.20;;;6.70;99.90;;;;;;4953667;28;20242;-75
2021/01/07 12:01:42;;;;;;;4.90;1.33;;;6.70;99.90;;;;;;4944641;28;20213;-77
2021/01/07 12:04:12;;;;;;;2.90;1.10;;;6.80;99.90;;;;;;4936378;28;20211;-76
2021/01/07 12:06:49;;;;;;;3.97;1.10;;;6.80;99.90;;;;;;4936197;28;20233;-77
2021/01/07 12:19:49;;;;;;;3.67;1.17;;;6.70;99.90;;;;;;5050419;27;20927;-83
2021/01/07 12:22:16;;;;;;;8.13;1.47;;;6.20;99.90;;;;;;5054684;28;20654;-84
2021/01/07 12:24:44;;;;;;;2.87;1.10;;;6.40;99.90;;;;;;5040717;28;20235;-83
2021/01/07 12:27:11;;;;;;;1.53;1.10;;;6.30;99.90;;;;;;5051283;28;20227;-82
2021/01/07 12:29:38;;;;;;;5.20;1.10;;;6.40;99.90;;;;;;5031469;28;20609;-84
2021/01/07 12:32:14;;;;;;;2.77;1.40;;;6.60;99.90;;;;;;5044588;28;20587;-83
2021/01/07 12:34:47;;;;;;;3.17;1.43;;;6.70;99.90;;;;;;5048332;28;20204;-83
2021/01/07 12:37:16;;;;;;;4.20;1.17;;;6.60;99.90;;;;;;5040819;28;20269;-83
2021/01/07 12:40:03;;;;;;;2.40;1.00;;;6.80;99.90;;;;;;5035036;28;20221;-82
2021/01/07 12:42:34;;;;;;;4.47;1.53;;;6.80;99.90;;;;;;5046388;28;20287;-83
2021/01/07 12:45:04;;;;;;;5.23;1.30;;;6.90;99.90;;;;;;5038358;28;20208;-80
2021/01/07 12:47:30;;;;;;;5.17;1.20;;;7.00;99.90;;;;;;5051268;28;20262;-80
2021/01/07 12:49:57;;;;;;;5.40;1.03;;;7.00;99.90;;;;;;5047589;28;20322;-83
2021/01/07 12:52:25;;;;;;;2.07;1.23;;;7.20;99.90;;;;;;5046119;28;20217;-83
2021/01/07 12:54:51;;;;;;;1.90;1.40;;;7.30;99.90;;;;;;5048141;28;20207;-81
2021/01/07 12:57:21;;;;;;;2.40;1.00;;;7.10;99.90;;;;;;5039642;28;20232;-83
2021/01/07 12:59:58;;;;;;;2.60;0.97;;;7.10;99.90;;;;;;5050605;28;20741;-83
2021/01/07 13:02:31;;;;;;;2.23;1.00;;;7.10;99.90;;;;;;5047775;28;20201;-82
2021/01/07 13:05:10;;;;;;;4.60;1.00;;;7.00;99.90;;;;;;5047071;28;20697;-83
2021/01/07 13:07:39;;;;;;;3.77;1.20;;;6.90;99.90;;;;;;5044862;28;20244;-82
2021/01/07 13:10:07;;;;;;;2.37;1.27;;;6.80;99.90;;;;;;5047175;28;20659;-83
2021/01/07 13:12:38;;;;;;;2.50;1.10;;;6.80;99.90;;;;;;5044377;28;20562;-83
2021/01/07 13:15:07;;;;;;;4.17;1.40;;;6.80;99.90;;;;;;5044645;28;20723;-80
2021/01/07 13:17:34;;;;;;;3.30;1.40;;;6.70;99.90;;;;;;5042980;28;20235;-80
2021/01/07 13:20:00;;;;;;;5.17;1.70;;;6.80;99.90;;;;;;5036795;28;20216;-81
2021/01/07 13:22:26;;;;;;;2.33;1.07;;;6.80;99.90;;;;;;5032158;28;20559;-82
2021/01/07 13:24:54;;;;;;;7.97;1.33;;;6.70;99.90;;;;;;5031936;28;20213;-74
2021/01/07 13:27:23;;;;;;;2.80;1.23;;;6.90;99.90;;;;;;5031478;28;20236;-75
2021/01/07 13:29:50;;;;;;;3.27;1.10;;;7.00;99.90;;;;;;5030533;28;20205;-73
2021/01/07 13:32:17;;;;;;;2.23;1.60;;;7.00;99.90;;;;;;5028386;28;20211;-74
2021/01/07 13:34:44;;;;;;;4.23;1.30;;;6.90;99.90;;;;;;5030911;28;20300;-80
2021/01/07 13:37:16;;;;;;;6.13;1.60;;;6.90;99.90;;;;;;5030284;28;20286;-79
2021/01/07 13:39:42;;;;;;;3.00;1.17;;;6.90;99.90;;;;;;5030375;28;20712;-80
2021/01/07 13:42:10;;;;;;;4.67;1.50;;;6.90;99.90;;;;;;5030783;28;20643;-74
2021/01/07 13:44:37;;;;;;;3.13;1.30;;;6.80;99.90;;;;;;5030689;28;20201;-77
2021/01/07 13:47:04;;;;;;;6.33;1.10;;;6.90;99.90;;;;;;5029769;28;20228;-74
2021/01/07 13:49:33;;;;;;;3.13;1.33;;;6.90;99.90;;;;;;5030886;28;20212;-80
2021/01/07 13:52:03;;;;;;;3.10;1.20;;;7.00;99.90;;;;;;5030643;28;20216;-77
2021/01/07 13:54:34;;;;;;;1.87;1.13;;;6.90;99.90;;;;;;5027127;28;20205;-70
2021/01/07 13:57:03;;;;;;;1.80;1.10;;;7.00;99.90;;;;;;5031222;28;20236;-70
2021/01/07 13:59:31;;;;;;;2.90;1.13;;;7.10;99.90;;;;;;5030278;28;20690;-69
2021/01/07 14:01:58;;;;;;;2.67;1.17;;;7.10;99.90;;;;;;5030572;28;20679;-69
2021/01/07 14:04:24;;;;;;;4.13;1.10;;;7.10;99.90;;;;;;5031146;28;20238;-69
2021/01/07 14:06:51;;;;;;;3.67;0.90;;;7.10;99.90;;;;;;5031291;28;20225;-69
2021/01/07 14:09:21;;;;;;;5.10;1.00;;;7.00;99.90;;;;;;5031564;28;20591;-69
2021/01/07 14:11:49;;;;;;;2.20;0.90;;;6.90;99.90;;;;;;5031260;28;20568;-69
2021/01/07 14:14:17;;;;;;;5.03;0.83;;;6.80;99.90;;;;;;5031492;28;20208;-68
2021/01/07 14:16:45;;;;;;;1.07;0.80;;;6.70;99.90;;;;;;5031397;28;20266;-68
2021/01/07 14:19:13;;;;;;;2.10;0.90;;;6.50;99.90;;;;;;5031217;28;20242;-69
2021/01/07 14:21:40;;;;;;;3.10;0.90;;;6.40;99.90;;;;;;5031379;28;20780;-68
2021/01/07 14:24:11;;;;;;;1.67;0.90;;;6.30;99.90;;;;;;5031695;28;20205;-68
2021/01/07 14:26:47;;;;;;;2.87;1.00;;;6.20;99.90;;;;;;5032287;28;20319;-68
2021/01/07 14:29:18;;;;;;;3.53;0.80;;;6.20;99.90;;;;;;5031532;28;20232;-68
2021/01/07 14:31:46;;;;;;;2.00;1.10;;;6.20;99.90;;;;;;5030156;28;20205;-69
2021/01/07 14:34:13;;;;;;;2.80;1.13;;;6.10;99.90;;;;;;5031722;28;20216;-68
2021/01/07 14:36:41;;;;;;;2.77;0.87;;;6.20;99.90;;;;;;5031526;28;20274;-68
2021/01/07 14:39:08;;;;;;;0.90;0.60;;;6.10;99.90;;;;;;5031536;28;20209;-68
2021/01/07 14:41:35;;;;;;;2.30;0.90;;;6.00;99.90;;;;;;5031409;28;20205;-68
2021/01/07 14:44:03;;;;;;;2.40;1.07;;;5.90;99.90;;;;;;5031307;28;20216;-69
2021/01/07 14:46:31;;;;;;;3.17;1.50;;;5.80;99.90;;;;;;5030745;28;20726;-68
2021/01/07 14:49:00;;;;;;;3.93;1.37;;;5.80;99.90;;;;;;5031261;28;20386;-69
2021/01/07 14:51:29;;;;;;;3.50;1.30;;;5.70;99.90;;;;;;5031193;28;20216;-69
2021/01/07 14:54:00;;;;;;;1.67;0.93;;;5.60;99.90;;;;;;5031117;28;20213;-68
2021/01/07 14:56:36;;;;;;;2.67;0.90;;;5.60;99.90;;;;;;5030814;28;20229;-68
2021/01/07 14:59:22;;;;;;;6.23;0.97;;;5.70;99.90;;;;;;5030950;28;20212;-69
2021/01/07 15:02:06;;;;;;;2.80;1.03;;;5.60;99.90;;;;;;5031190;28;20299;-69
2021/01/07 15:04:47;;;;;;;1.10;0.70;;;5.60;99.90;;;;;;5031178;28;20571;-69
2021/01/07 15:07:19;;;;;;;1.20;0.70;;;5.60;99.90;;;;;;5030670;28;20702;-68
2021/01/07 15:09:47;;;;;;;2.17;0.73;;;5.50;99.90;;;;;;5031108;28;20208;-69
2021/01/07 15:12:21;;;;;;;1.07;0.60;;;5.40;99.90;;;;;;5031067;28;20209;-68
2021/01/07 15:14:58;;;;;;;1.63;1.00;;;5.30;99.90;;;;;;5030924;28;20207;-72
2021/01/07 15:17:41;;;;;;;1.50;0.90;;;5.30;99.90;;;;;;5030438;28;20281;-71
2021/01/07 15:20:16;;;;;;;2.67;1.30;;;5.40;99.90;;;;;;5030707;28;20204;-69
2021/01/07 15:22:52;;;;;;;1.47;0.80;;;5.30;99.90;;;;;;5030255;28;20215;-70
2021/01/07 15:25:27;;;;;;;2.07;1.10;;;5.30;99.90;;;;;;5030609;28;20204;-70
2021/01/07 15:28:01;;;;;;;2.03;1.00;;;5.30;99.90;;;;;;5030006;28;20239;-68
2021/01/07 15:30:37;;;;;;;0.90;0.80;;;5.40;99.90;;;;;;5037617;28;20194;-69
2021/01/07 15:33:05;;;;;;;2.03;0.90;;;5.40;99.90;;;;;;5037948;28;20196;-68
2021/01/07 15:35:34;;;;;;;1.90;1.20;;;5.40;99.90;;;;;;5038900;28;20204;-68
2021/01/07 15:38:39;;;;;;;1.63;1.00;;;5.30;99.90;;;;;;5030187;28;20225;-69
2021/01/07 15:41:37;;;;;;;1.27;0.93;;;5.20;99.90;;;;;;5030304;28;20215;-70
2021/01/07 15:45:03;;;;;;;2.23;0.90;;;5.10;99.90;;;;;;5029857;28;20266;-71
2021/01/07 15:48:00;;;;;;;2.57;1.10;;;5.20;99.90;;;;;;5029956;28;20228;-69
2021/01/07 15:50:30;;;;;;;7.13;1.10;;;5.10;99.90;;;;;;5029946;28;20213;-71
2021/01/07 15:53:39;;;;;;;4.37;1.10;;;5.10;99.90;;;;;;5029634;28;20205;-69
2021/01/07 15:56:27;;;;;;;1.87;1.20;;;5.00;99.90;;;;;;5029062;28;20201;-71
2021/01/07 15:59:04;;;;;;;3.33;1.57;;;5.00;99.90;;;;;;5029940;28;20205;-69
2021/01/07 16:01:40;;;;;;;1.87;1.37;;;4.90;99.90;;;;;;5029709;28;20205;-71
2021/01/07 16:04:15;;;;;;;2.17;1.13;;;4.80;99.90;;;;;;5030118;28;20205;-69
2021/01/07 16:06:42;;;;;;;4.20;1.40;;;4.80;99.90;;;;;;5030019;28;20240;-69
2021/01/07 16:09:09;;;;;;;1.87;1.27;;;4.80;99.90;;;;;;5030196;28;20236;-69
2021/01/07 16:11:37;;;;;;;4.57;1.87;;;4.90;99.90;;;;;;5030033;28;20208;-69
2021/01/07 16:14:05;;;;;;;2.90;1.50;;;4.80;99.90;;;;;;5029192;28;20552;-70
2021/01/07 16:16:32;;;;;;;2.13;1.57;;;4.90;99.90;;;;;;5029480;28;20220;-70
2021/01/07 16:19:01;;;;;;;2.43;1.67;;;4.90;99.90;;;;;;5029842;28;20228;-70
2021/01/07 16:21:34;;;;;;;3.20;1.77;;;4.90;99.90;;;;;;5029901;28;20237;-71
2021/01/07 16:24:03;;;;;;;2.90;1.80;;;4.90;99.90;;;;;;5029874;28;20205;-70
2021/01/07 16:26:31;;;;;;;3.33;1.87;;;4.90;99.90;;;;;;5029362;28;20306;-71
2021/01/07 16:29:00;;;;;;;4.80;1.70;;;4.90;99.90;;;;;;5029925;28;20293;-70
2021/01/07 16:31:27;;;;;;;2.73;1.97;;;4.90;99.90;;;;;;5029881;28;20220;-72
2021/01/07 16:33:54;;;;;;;2.37;1.40;;;4.90;99.90;;;;;;5029383;28;20205;-70
2021/01/07 16:36:21;;;;;;;2.90;2.00;;;4.90;99.90;;;;;;5029319;28;20212;-70
2021/01/07 16:38:49;;;;;;;2.57;1.57;;;4.80;99.90;;;;;;5029139;28;20205;-72
2021/01/07 16:41:16;;;;;;;4.23;1.80;;;4.80;99.90;;;;;;5029707;28;20571;-71
2021/01/07 16:43:42;;;;;;;3.37;1.97;;;4.80;99.90;;;;;;5029854;28;20205;-70
2021/01/07 16:46:09;;;;;;;6.13;2.27;;;4.90;99.90;;;;;;5029712;28;20205;-73
2021/01/07 16:48:37;;;;;;;3.83;2.40;;;4.80;99.90;;;;;;5029437;28;20233;-72
2021/01/07 16:51:04;;;;;;;2.17;1.67;;;4.70;99.90;;;;;;5029247;28;20201;-70
2021/01/07 16:53:30;;;;;;;2.43;1.87;;;4.70;99.90;;;;;;5029012;28;20209;-71
2021/01/07 16:55:57;;;;;;;2.83;2.13;;;4.70;99.90;;;;;;5032221;28;20205;-73
2021/01/07 16:58:23;;;;;;;4.23;2.37;;;4.80;99.90;;;;;;5032437;28;20707;-73
2021/01/07 17:00:49;;;;;;;3.17;2.23;;;4.70;99.90;;;;;;5033078;28;20205;-71
2021/01/07 17:03:16;;;;;;;3.83;1.70;;;4.80;99.90;;;;;;5032714;28;20212;-73
2021/01/07 17:05:43;;;;;;;5.03;2.33;;;4.70;99.90;;;;;;5032564;28;20258;-68
2021/01/07 17:08:09;;;;;;;5.13;2.90;;;4.70;99.90;;;;;;5032096;28;20229;-70
2021/01/07 17:10:35;;;;;;;3.53;2.20;;;4.80;99.90;;;;;;5032218;28;20201;-70
2021/01/07 17:13:02;;;;;;;4.07;2.20;;;4.80;99.90;;;;;;5032257;28;20258;-68
2021/01/07 17:15:28;;;;;;;3.27;1.97;;;4.80;99.90;;;;;;5032458;28;20231;-70
2021/01/07 17:17:54;;;;;;;5.17;2.53;;;4.80;99.90;;;;;;5032147;28;20710;-72
2021/01/07 17:20:21;;;;;;;3.60;2.20;;;4.70;99.90;;;;;;5032347;28;20215;-70
2021/01/07 17:22:48;;;;;;;4.87;2.10;;;4.60;99.90;;;;;;5032119;28;20216;-70
2021/01/07 17:25:14;;;;;;;3.37;2.30;;;4.60;99.90;;;;;;5032096;28;20205;-69
2021/01/07 17:27:40;;;;;;;2.90;1.90;;;4.50;99.90;;;;;;5031699;28;20229;-71
2021/01/07 17:30:09;;;;;;;3.97;2.00;;;4.50;99.90;;;;;;5032206;28;20567;-71
2021/01/07 17:32:35;;;;;;;3.77;2.30;;;4.50;99.90;;;;;;5031962;28;20620;-70
2021/01/07 17:35:01;;;;;;;5.37;2.20;;;4.50;99.90;;;;;;5032056;28;20209;-70
2021/01/07 17:37:28;;;;;;;2.77;2.10;;;4.50;99.90;;;;;;5031914;28;20233;-70
2021/01/07 17:39:55;;;;;;;4.60;2.50;;;4.50;99.90;;;;;;5032214;28;20254;-70
2021/01/07 17:42:21;;;;;;;3.33;2.23;;;4.40;99.90;;;;;;5032096;28;20262;-70
2021/01/07 17:44:47;;;;;;;3.93;2.70;;;4.50;99.90;;;;;;5032005;28;20282;-70
2021/01/07 17:47:14;;;;;;;6.20;2.73;;;4.50;99.90;;;;;;5031700;28;20225;-70
2021/01/07 17:49:41;;;;;;;5.50;2.77;;;4.60;99.90;;;;;;5031882;28;20243;-70
2021/01/07 17:52:11;;;;;;;3.07;2.17;;;4.60;99.90;;;;;;5031922;28;20686;-70
2021/01/07 17:54:39;;;;;;;4.50;2.70;;;4.60;99.90;;;;;;5031825;28;20209;-68
2021/01/07 17:57:05;;;;;;;4.27;2.43;;;4.40;99.90;;;;;;5031713;28;20702;-68
2021/01/07 17:59:35;;;;;;;3.93;2.40;;;4.30;99.90;;;;;;5032114;28;20201;-68
2021/01/07 18:02:02;;;;;;;5.73;2.63;;;4.40;99.90;;;;;;5031904;28;20209;-73
2021/01/07 18:04:29;;;;;;;5.87;2.77;;;4.40;99.90;;;;;;5031618;28;20254;-69
2021/01/07 18:06:55;;;;;;;3.50;2.30;;;4.50;99.90;;;;;;5031860;28;20229;-73
2021/01/07 18:09:21;;;;;;;4.90;2.73;;;4.50;99.90;;;;;;5031605;28;20275;-70
2021/01/07 18:11:54;;;;;;;3.97;2.27;;;4.60;99.90;;;;;;5031780;28;20205;-73
2021/01/07 18:14:20;;;;;;;5.23;2.63;;;4.60;99.90;;;;;;5031865;28;20223;-70
2021/01/07 18:16:46;;;;;;;4.10;2.47;;;4.70;99.90;;;;;;5031469;28;20236;-70
2021/01/07 18:19:13;;;;;;;4.97;2.60;;;4.70;99.90;;;;;;5031353;28;20212;-70
2021/01/07 18:21:39;;;;;;;3.23;2.40;;;4.70;99.90;;;;;;5031658;28;20336;-70
2021/01/07 18:24:06;;;;;;;3.20;2.13;;;4.60;99.90;;;;;;5027013;28;20208;-72
2021/01/07 18:26:32;;;;;;;3.07;2.23;;;4.60;99.90;;;;;;5023486;28;20265;-71
2021/01/07 18:28:59;;;;;;;3.30;2.43;;;4.50;99.90;;;;;;5027428;28;20237;-69
2021/01/07 18:31:26;;;;;;;4.53;2.27;;;4.60;99.90;;;;;;5024491;28;20209;-69
2021/01/07 18:33:52;;;;;;;4.23;2.80;;;4.60;99.90;;;;;;5028652;28;20209;-70
2021/01/07 18:36:20;;;;;;;5.23;2.90;;;4.60;99.90;;;;;;5025457;28;20593;-69
2021/01/07 18:38:47;;;;;;;4.70;2.57;;;4.50;99.90;;;;;;5025568;28;20213;-69
2021/01/07 18:41:15;;;;;;;4.67;2.70;;;4.50;99.90;;;;;;5025148;28;20205;-70
2021/01/07 18:43:41;;;;;;;3.73;2.47;;;4.50;99.90;;;;;;5023057;28;20212;-70
2021/01/07 18:46:08;;;;;;;4.33;2.60;;;4.60;99.90;;;;;;5027981;28;20660;-72
2021/01/07 18:48:35;;;;;;;4.10;2.63;;;4.60;99.90;;;;;;5025232;28;20595;-69
2021/01/07 18:51:03;;;;;;;6.53;2.83;;;4.60;99.90;;;;;;5028374;28;20712;-69
2021/01/07 18:53:29;;;;;;;3.43;2.60;;;4.60;99.90;;;;;;5025768;28;20215;-70
2021/01/07 18:55:56;;;;;;;3.80;2.30;;;4.60;99.90;;;;;;5023927;28;20201;-69
2021/01/07 18:58:22;;;;;;;3.87;2.40;;;4.50;99.90;;;;;;5025739;28;20225;-70
2021/01/07 19:00:48;;;;;;;5.27;2.97;;;4.50;99.90;;;;;;5027297;28;20209;-69
2021/01/07 19:03:15;;;;;;;4.60;2.80;;;4.20;99.90;;;;;;5021385;28;20593;-69
2021/01/07 19:05:42;;;;;;;3.83;2.50;;;4.10;99.90;;;;;;5020024;28;20271;-71
2021/01/07 19:08:08;;;;;;;3.80;2.67;;;4.10;99.90;;;;;;5026602;28;20237;-69
2021/01/07 19:10:34;;;;;;;5.07;2.97;;;4.00;99.90;;;;;;5026764;28;20212;-72
2021/01/07 19:13:01;;;;;;;4.53;2.73;;;4.00;99.90;;;;;;5021555;28;20249;-71
2021/01/07 19:15:27;;;;;;;5.13;3.20;;;3.90;99.90;;;;;;5016568;28;20210;-70
2021/01/07 19:17:53;;;;;;;4.37;2.83;;;4.00;99.90;;;;;;5025296;28;20237;-71
2021/01/07 19:20:21;;;;;;;4.97;2.63;;;4.00;99.90;;;;;;5022369;28;20213;-71
2021/01/07 19:22:48;;;;;;;5.07;3.03;;;4.00;99.90;;;;;;5020366;28;20204;-71
2021/01/07 19:25:14;;;;;;;7.17;3.83;;;4.00;99.90;;;;;;5019148;28;20213;-70
2021/01/07 19:27:40;;;;;;;8.43;3.97;;;4.00;99.90;;;;;;5024693;28;20221;-70
2021/01/07 19:30:08;;;;;;;6.20;3.40;;;4.00;99.90;;;;;;5022682;28;20202;-70
2021/01/07 19:32:34;;;;;;;6.67;3.60;;;4.10;99.90;;;;;;5028407;28;20209;-69
2021/01/07 19:35:00;;;;;;;10.17;5.37;;;4.00;99.90;;;;;;5023191;28;20219;-70
2021/01/07 19:37:27;;;;;;;7.00;3.97;;;4.10;99.90;;;;;;5019638;28;20241;-70
2021/01/07 19:39:54;;;;;;;5.47;3.60;;;4.00;99.90;;;;;;5025326;28;20205;-70
2021/01/07 19:42:20;;;;;;;7.43;3.60;;;3.90;99.90;;;;;;5025853;28;20209;-70
2021/01/07 19:44:47;;;;;;;7.77;3.70;;;4.00;99.90;;;;;;5020830;28;20613;-70
2021/01/07 19:47:16;;;;;;;5.53;3.90;;;4.10;99.90;;;;;;5027094;28;20228;-70
2021/01/07 19:49:42;;;;;;;6.40;3.83;;;4.00;99.90;;;;;;5023419;28;20234;-70
2021/01/07 19:52:08;;;;;;;5.57;3.50;;;4.00;99.90;;;;;;5023614;28;20587;-71
2021/01/07 19:54:35;;;;;;;8.43;4.30;;;4.10;99.90;;;;;;5022403;28;20205;-71
2021/01/07 19:57:02;;;;;;;7.90;4.27;;;4.10;99.90;;;;;;5028673;28;20706;-70
2021/01/07 19:59:29;;;;;;;7.97;4.73;;;4.10;99.90;;;;;;5022929;28;20643;-70
2021/01/07 20:01:55;;;;;;;7.70;4.43;;;4.10;99.90;;;;;;5024155;28;20655;-70
2021/01/07 20:04:21;;;;;;;9.33;4.63;;;4.20;99.90;;;;;;5018450;28;20205;-70
2021/01/07 20:06:47;;;;;;;7.67;3.97;;;4.20;99.90;;;;;;5026008;28;20586;-70
2021/01/07 20:09:14;;;;;;;9.67;4.70;;;4.20;99.90;;;;;;5023299;28;20233;-71
2021/01/07 20:11:41;;;;;;;8.50;4.63;;;4.10;99.90;;;;;;5020221;28;20209;-69
2021/01/07 20:14:08;;;;;;;7.23;4.47;;;4.10;99.90;;;;;;5024637;28;20209;-70
2021/01/07 20:16:35;;;;;;;7.43;4.40;;;4.10;99.90;;;;;;5025738;28;20225;-69
2021/01/07 20:19:01;;;;;;;7.77;3.90;;;4.00;99.90;;;;;;5027102;28;20693;-70
2021/01/07 20:21:28;;;;;;;6.70;4.33;;;4.00;99.90;;;;;;5031304;28;20192;-70
2021/01/07 20:23:54;;;;;;;8.97;4.63;;;4.00;99.90;;;;;;5035170;28;20244;-69
2021/01/07 20:26:20;;;;;;;8.43;4.63;;;4.10;99.90;;;;;;5037039;28;20219;-69
2021/01/07 20:28:47;;;;;;;8.33;4.33;;;4.10;99.90;;;;;;5032468;28;20224;-69
2021/01/07 20:31:14;;;;;;;8.60;4.50;;;4.00;99.90;;;;;;5036841;28;20200;-69
2021/01/07 20:33:41;;;;;;;7.33;4.47;;;4.00;99.90;;;;;;5038636;28;20200;-69
2021/01/07 20:36:08;;;;;;;8.60;4.30;;;4.00;99.90;;;;;;5040455;28;20208;-68
2021/01/07 20:38:34;;;;;;;8.33;4.70;;;4.10;99.90;;;;;;5038186;28;20208;-68
2021/01/07 20:41:00;;;;;;;8.17;4.40;;;4.10;99.90;;;;;;5036597;28;20562;-69
2021/01/07 20:43:27;;;;;;;8.40;4.60;;;4.10;99.90;;;;;;5039823;28;20677;-69
2021/01/07 20:45:54;;;;;;;7.47;4.10;;;4.10;99.90;;;;;;5038533;28;20643;-69
2021/01/07 20:48:20;;;;;;;7.97;4.40;;;4.10;99.90;;;;;;5039853;28;20240;-69
2021/01/07 20:50:46;;;;;;;6.97;4.33;;;4.10;99.90;;;;;;5028659;28;20211;-69
2021/01/07 20:53:12;;;;;;;7.93;4.57;;;4.20;99.90;;;;;;5037132;28;20212;-70
2021/01/07 20:55:39;;;;;;;7.57;4.30;;;4.20;99.90;;;;;;5036017;28;20263;-69
2021/01/07 20:58:05;;;;;;;8.73;4.13;;;4.20;99.90;;;;;;5034152;28;20235;-69
2021/01/07 21:00:31;;;;;;;6.13;4.07;;;4.30;99.90;;;;;;5031718;28;20197;-69
2021/01/07 21:02:59;;;;;;;7.00;3.77;;;4.40;99.90;;;;;;5032089;28;20254;-69
2021/01/07 21:05:25;;;;;;;7.00;4.07;;;4.50;99.90;;;;;;5033065;28;20212;-69
2021/01/07 21:07:52;;;;;;;6.60;3.63;;;4.50;99.90;;;;;;5040592;28;20224;-69
2021/01/07 21:10:19;;;;;;;6.47;3.70;;;4.50;99.90;;;;;;5022326;28;20206;-69
2021/01/07 21:12:45;;;;;;;8.17;3.73;;;4.60;99.90;;;;;;5024415;28;20609;-69
2021/01/07 21:15:12;;;;;;;6.70;4.00;;;4.60;99.90;;;;;;5020438;28;20206;-69
2021/01/07 21:17:38;;;;;;;8.83;4.30;;;4.60;99.90;;;;;;5020093;28;20225;-69
2021/01/07 21:20:08;;;;;;;6.33;3.60;;;4.70;99.90;;;;;;5024213;28;20205;-69
2021/01/07 21:22:34;;;;;;;6.83;4.00;;;4.60;99.90;;;;;;5023529;28;20209;-69
2021/01/07 21:25:01;;;;;;;5.53;3.53;;;4.60;99.90;;;;;;5024517;28;20205;-69
2021/01/07 21:27:27;;;;;;;6.93;3.33;;;4.60;99.90;;;;;;5021688;28;20229;-68
2021/01/07 21:29:53;;;;;;;7.23;3.80;;;4.50;99.90;;;;;;5028761;28;20233;-69
2021/01/07 21:32:19;;;;;;;4.97;2.77;;;4.50;99.90;;;;;;5018455;28;20206;-69
2021/01/07 21:34:46;;;;;;;5.77;2.97;;;4.50;99.90;;;;;;5029555;28;20205;-68
2021/01/07 21:37:14;;;;;;;4.27;2.20;;;4.50;99.90;;;;;;5025826;28;20591;-69
2021/01/07 21:39:42;;;;;;;4.83;2.50;;;4.50;99.90;;;;;;5028841;28;20205;-69
2021/01/07 21:42:09;;;;;;;3.47;2.10;;;4.60;99.90;;;;;;5026211;28;20202;-69
2021/01/07 21:44:36;;;;;;;4.77;2.50;;;4.50;99.90;;;;;;5028797;28;20719;-69
2021/01/07 21:47:03;;;;;;;9.50;2.77;;;4.50;99.90;;;;;;5023260;28;20221;-69
2021/01/07 21:49:29;;;;;;;4.70;2.47;;;4.60;99.90;;;;;;5025211;28;20696;-69